createdAt,value
2023-04-08T00:01:37.664Z,13.07
2023-04-08T00:04:05.300Z,13.37
2023-04-08T00:06:33.369Z,13.13
2023-04-08T00:09:00.953Z,12.00
2023-04-08T00:11:28.653Z,14.73
2023-04-08T00:13:59.728Z,12.93
2023-04-08T00:16:27.303Z,11.82
2023-04-08T00:18:54.904Z,13.50
2023-04-08T00:21:22.429Z,13.43
2023-04-08T00:23:49.970Z,13.50
2023-04-08T00:26:17.278Z,15.00
2023-04-08T00:28:44.633Z,13.07
2023-04-08T00:31:12.253Z,14.67
2023-04-08T00:33:39.833Z,11.63
2023-04-08T00:36:11.115Z,11.93
2023-04-08T00:38:38.589Z,11.50
2023-04-08T00:41:05.926Z,9.70
2023-04-08T00:43:33.358Z,9.97
2023-04-08T00:46:01.139Z,9.83
2023-04-08T00:48:28.620Z,9.70
2023-04-08T00:50:58.193Z,10.10
2023-04-08T00:53:26.020Z,10.97
2023-04-08T00:55:53.426Z,9.20
2023-04-08T00:58:20.929Z,8.50
2023-04-08T01:00:53.566Z,9.17
2023-04-08T01:03:24.261Z,9.63
2023-04-08T01:05:51.689Z,8.63
2023-04-08T01:08:19.453Z,7.50
2023-04-08T01:10:50.124Z,6.90
2023-04-08T01:13:19.245Z,6.23
2023-04-08T01:15:47.544Z,7.67
2023-04-08T01:18:16.407Z,6.57
2023-04-08T01:20:44.322Z,6.30
2023-04-08T01:23:33.893Z,5.70
2023-04-08T01:26:01.574Z,5.10
2023-04-08T01:28:30.278Z,5.30
2023-04-08T01:30:58.650Z,5.63
2023-04-08T01:33:26.248Z,4.63
2023-04-08T01:35:55.172Z,6.17
2023-04-08T01:38:24.134Z,4.90
2023-04-08T01:40:51.728Z,4.80
2023-04-08T01:43:19.890Z,5.60
2023-04-08T01:45:48.800Z,5.43
2023-04-08T01:48:19.658Z,5.67
2023-04-08T01:50:47.099Z,6.03
2023-04-08T01:53:14.893Z,6.27
2023-04-08T01:55:43.141Z,5.33
2023-04-08T01:58:13.313Z,5.97
2023-04-08T02:00:41.751Z,6.17
2023-04-08T02:03:09.780Z,6.33
2023-04-08T02:05:39.776Z,6.27
2023-04-08T02:08:07.148Z,6.00
2023-04-08T02:10:34.822Z,6.57
2023-04-08T02:13:03.071Z,6.70
2023-04-08T02:15:34.898Z,7.13
2023-04-08T02:18:22.362Z,5.70
2023-04-08T02:20:53.681Z,6.43
2023-04-08T02:23:22.207Z,6.90
2023-04-08T02:25:51.138Z,5.70
2023-04-08T02:28:19.697Z,6.23
2023-04-08T02:30:51.394Z,6.37
2023-04-08T02:35:46.060Z,5.30
2023-04-08T02:38:14.568Z,6.10
2023-04-08T02:40:42.785Z,6.93
2023-04-08T02:43:10.194Z,5.60
2023-04-08T02:45:42.920Z,6.60
2023-04-08T02:48:10.793Z,6.87
2023-04-08T02:50:38.367Z,6.23
2023-04-08T02:53:05.036Z,6.20
2023-04-08T02:55:32.310Z,6.80
2023-04-08T02:57:59.639Z,6.53
2023-04-08T03:00:27.223Z,5.90
2023-04-08T03:02:54.878Z,5.93
2023-04-08T03:05:22.609Z,6.60
2023-04-08T03:07:50.138Z,6.33
2023-04-08T03:10:17.647Z,7.00
2023-04-08T03:12:45.225Z,6.90
2023-04-08T03:15:12.523Z,7.63
2023-04-08T03:17:40.174Z,7.87
2023-04-08T03:20:08.266Z,7.83
2023-04-08T03:22:37.872Z,7.33
2023-04-08T03:25:08.365Z,9.50
2023-04-08T03:27:35.812Z,11.03
2023-04-08T03:30:03.598Z,8.57
2023-04-08T03:32:31.640Z,8.77
2023-04-08T03:34:59.181Z,9.03
2023-04-08T03:37:29.069Z,8.07
2023-04-08T03:39:56.965Z,8.50
2023-04-08T03:42:24.940Z,8.27
2023-04-08T03:44:52.523Z,8.63
2023-04-08T03:47:20.085Z,8.27
2023-04-08T03:49:48.706Z,10.00
2023-04-08T03:52:16.138Z,8.73
2023-04-08T03:54:43.631Z,8.93
2023-04-08T03:57:12.572Z,9.67
2023-04-08T03:59:41.554Z,8.90
2023-04-08T04:02:12.156Z,8.77
2023-04-08T04:04:39.500Z,8.67
2023-04-08T04:07:06.774Z,10.50
2023-04-08T04:09:34.416Z,10.33
2023-04-08T04:12:02.665Z,9.90
2023-04-08T04:14:30.138Z,10.93
2023-04-08T04:16:57.368Z,9.73
2023-04-08T04:19:24.792Z,10.07
2023-04-08T04:21:55.126Z,9.63
2023-04-08T04:24:22.496Z,10.63
2023-04-08T04:26:49.752Z,10.23
2023-04-08T04:29:16.837Z,11.00
2023-04-08T04:31:46.531Z,11.93
2023-04-08T04:34:17.023Z,12.60
2023-04-08T04:36:44.607Z,11.37
2023-04-08T04:39:11.939Z,11.57
2023-04-08T04:41:41.236Z,10.57
2023-04-08T04:44:09.427Z,11.67
2023-04-08T04:46:36.600Z,9.77
2023-04-08T04:49:04.018Z,8.63
2023-04-08T04:51:34.482Z,9.20
2023-04-08T04:54:04.961Z,9.73
2023-04-08T04:56:32.326Z,9.00
2023-04-08T04:58:59.668Z,10.33
2023-04-08T05:01:30.011Z,8.87
2023-04-08T05:03:57.609Z,10.90
2023-04-08T05:06:24.958Z,9.03
2023-04-08T05:08:52.458Z,8.57
2023-04-08T05:11:20.027Z,9.30
2023-04-08T05:13:51.247Z,10.23
2023-04-08T05:16:18.794Z,9.17
2023-04-08T05:18:46.325Z,10.00
2023-04-08T05:21:13.905Z,8.53
2023-04-08T05:23:41.359Z,7.70
2023-04-08T05:26:09.320Z,7.75
2023-04-08T05:28:36.960Z,7.95
2023-04-08T05:31:04.514Z,8.02
2023-04-08T05:33:31.881Z,8.77
2023-04-08T05:35:59.267Z,9.50
2023-04-08T05:38:27.183Z,8.02
2023-04-08T05:40:54.875Z,8.65
2023-04-08T05:43:22.343Z,8.82
2023-04-08T05:45:52.251Z,9.45
2023-04-08T05:48:19.753Z,8.52
2023-04-08T05:50:49.033Z,9.32
2023-04-08T05:53:16.491Z,8.70
2023-04-08T05:55:43.938Z,9.02
2023-04-08T05:58:11.325Z,7.97
2023-04-08T06:00:38.580Z,9.07
2023-04-08T06:03:06.360Z,8.05
2023-04-08T06:05:33.769Z,9.88
2023-04-08T06:08:01.607Z,8.00
2023-04-08T06:10:29.458Z,9.95
2023-04-08T06:12:56.934Z,16.58
2023-04-08T06:15:24.340Z,9.88
2023-04-08T06:17:52.264Z,9.43
2023-04-08T06:20:19.351Z,8.88
2023-04-08T06:22:46.754Z,9.18
2023-04-08T06:25:14.135Z,9.63
2023-04-08T06:27:41.488Z,9.18
2023-04-08T06:30:11.400Z,8.80
2023-04-08T06:32:38.975Z,9.65
2023-04-08T06:35:06.676Z,9.82
2023-04-08T06:37:34.973Z,8.43
2023-04-08T06:40:02.418Z,9.27
2023-04-08T06:42:29.933Z,9.35
2023-04-08T06:44:58.605Z,9.35
2023-04-08T06:47:26.471Z,9.60
2023-04-08T06:49:54.963Z,9.05
2023-04-08T06:52:22.512Z,9.10
2023-04-08T06:54:50.246Z,11.95
2023-04-08T06:57:17.441Z,10.65
2023-04-08T06:59:44.936Z,9.77
2023-04-08T07:02:12.805Z,9.85
2023-04-08T07:04:40.475Z,10.52
2023-04-08T07:07:08.241Z,9.25
2023-04-08T07:09:35.655Z,10.82
2023-04-08T07:12:05.080Z,10.40
2023-04-08T07:14:32.804Z,10.35
2023-04-08T07:17:00.369Z,9.90
2023-04-08T07:19:28.776Z,11.40
2023-04-08T07:21:57.353Z,12.32
2023-04-08T07:24:25.314Z,11.38
2023-04-08T07:26:53.212Z,10.48
2023-04-08T07:29:21.184Z,10.48
2023-04-08T07:31:48.905Z,10.63
2023-04-08T07:34:16.518Z,10.90
2023-04-08T07:36:44.147Z,10.73
2023-04-08T07:39:11.548Z,11.43
2023-04-08T07:41:42.195Z,10.07
2023-04-08T07:44:10.006Z,11.57
2023-04-08T07:46:39.435Z,11.45
2023-04-08T07:49:07.783Z,10.25
2023-04-08T07:51:35.383Z,9.95
2023-04-08T07:54:03.033Z,10.95
2023-04-08T07:56:31.202Z,13.40
2023-04-08T07:58:58.938Z,11.25
2023-04-08T08:01:26.466Z,11.32
2023-04-08T08:03:54.237Z,10.93
2023-04-08T08:06:22.853Z,10.40
2023-04-08T08:08:50.516Z,11.65
2023-04-08T08:11:18.326Z,11.48
2023-04-08T08:13:46.653Z,9.75
2023-04-08T08:16:14.173Z,9.75
2023-04-08T08:18:42.395Z,10.80
2023-04-08T08:21:10.635Z,10.32
2023-04-08T08:23:38.603Z,9.60
2023-04-08T08:26:07.301Z,10.00
2023-04-08T08:28:34.868Z,9.48
2023-04-08T08:31:03.733Z,10.95
2023-04-08T08:33:31.658Z,9.50
2023-04-08T08:35:59.145Z,10.18
2023-04-08T08:38:27.051Z,10.70
2023-04-08T08:40:57.890Z,10.70
2023-04-08T08:43:26.416Z,10.32
2023-04-08T08:45:54.391Z,9.77
2023-04-08T08:48:25.006Z,12.45
2023-04-08T08:50:53.173Z,11.23
2023-04-08T08:53:21.575Z,9.68
2023-04-08T08:58:19.653Z,10.90
2023-04-08T09:00:48.046Z,11.43
2023-04-08T09:03:22.739Z,10.70
2023-04-08T09:05:54.173Z,13.05
2023-04-08T09:08:24.737Z,10.02
2023-04-08T09:10:52.071Z,92.55
2023-04-08T09:13:20.286Z,11.98
2023-04-08T09:16:06.700Z,10.05
2023-04-08T09:18:34.953Z,9.75
2023-04-08T09:21:05.929Z,10.35
2023-04-08T09:23:41.008Z,9.70
2023-04-08T09:26:10.128Z,9.52
2023-04-08T09:28:38.078Z,9.90
2023-04-08T09:31:23.385Z,9.85
2023-04-08T09:33:51.779Z,8.63
2023-04-08T09:36:19.763Z,9.52
2023-04-08T09:38:48.211Z,9.90
2023-04-08T09:41:17.374Z,11.40
2023-04-08T09:43:50.396Z,9.40
2023-04-08T09:46:20.895Z,9.48
2023-04-08T09:48:54.651Z,13.43
2023-04-08T09:51:24.676Z,11.43
2023-04-08T09:53:58.532Z,8.30
2023-04-08T09:56:37.069Z,8.35
2023-04-08T09:59:10.949Z,8.88
2023-04-08T10:01:42.152Z,8.80
2023-04-08T10:04:11.062Z,11.32
2023-04-08T10:06:39.658Z,8.85
2023-04-08T10:09:08.273Z,9.60
2023-04-08T10:11:36.808Z,9.55
2023-04-08T10:14:04.451Z,8.48
2023-04-08T10:16:32.445Z,10.52
2023-04-08T10:19:00.425Z,8.48
2023-04-08T10:21:34.007Z,9.20
2023-04-08T10:24:08.985Z,7.55
2023-04-08T10:26:37.694Z,10.05
2023-04-08T10:29:19.973Z,7.80
2023-04-08T10:31:48.182Z,7.53
2023-04-08T10:34:23.441Z,7.38
2023-04-08T10:36:51.490Z,8.70
2023-04-08T10:39:19.378Z,7.47
2023-04-08T10:41:48.001Z,12.77
2023-04-08T10:44:18.965Z,13.27
2023-04-08T10:46:47.702Z,16.23
2023-04-08T10:49:19.562Z,15.65
2023-04-08T10:51:50.929Z,9.45
2023-04-08T10:54:18.835Z,7.88
2023-04-08T10:56:46.910Z,14.10
2023-04-08T10:59:17.745Z,7.55
2023-04-08T11:01:46.261Z,12.90
2023-04-08T11:04:14.742Z,9.20
2023-04-08T11:06:45.879Z,10.90
2023-04-08T11:09:13.545Z,9.45
2023-04-08T11:11:44.843Z,8.80
2023-04-08T11:14:12.609Z,21.77
2023-04-08T11:16:40.530Z,9.15
2023-04-08T11:19:08.385Z,16.48
2023-04-08T11:21:39.222Z,10.05
2023-04-08T11:24:13.178Z,13.93
2023-04-08T11:26:41.530Z,11.20
2023-04-08T11:29:13.553Z,11.77
2023-04-08T11:31:41.529Z,11.55
2023-04-08T11:34:09.311Z,12.40
2023-04-08T11:36:37.616Z,9.73
2023-04-08T11:39:08.884Z,14.35
2023-04-08T11:41:42.317Z,11.60
2023-04-08T11:44:09.929Z,8.80
2023-04-08T11:46:37.679Z,9.18
2023-04-08T11:49:08.665Z,8.55
2023-04-08T11:51:40.015Z,10.25
2023-04-08T11:54:07.925Z,8.27
2023-04-08T11:56:45.664Z,8.55
2023-04-08T11:59:12.945Z,8.40
2023-04-08T12:01:40.041Z,9.23
2023-04-08T12:04:11.075Z,8.77
2023-04-08T12:06:38.602Z,9.00
2023-04-08T12:09:06.156Z,7.95
2023-04-08T12:11:34.409Z,7.82
2023-04-08T12:14:01.813Z,8.65
2023-04-08T12:16:28.860Z,8.05
2023-04-08T12:18:56.205Z,8.48
2023-04-08T12:21:23.533Z,8.45
2023-04-08T12:23:51.657Z,8.73
2023-04-08T12:26:20.384Z,9.68
2023-04-08T12:28:48.217Z,9.50
2023-04-08T12:31:17.132Z,9.40
2023-04-08T12:33:45.083Z,8.93
2023-04-08T12:36:13.834Z,10.70
2023-04-08T12:38:41.085Z,7.97
2023-04-08T12:41:08.459Z,8.35
2023-04-08T12:43:39.860Z,9.07
2023-04-08T12:48:34.451Z,7.53
2023-04-08T12:51:01.998Z,7.47
2023-04-08T12:53:32.531Z,8.07
2023-04-08T12:55:59.657Z,11.03
2023-04-08T12:58:27.425Z,7.60
2023-04-08T13:00:54.698Z,8.30
2023-04-08T13:03:22.410Z,8.20
2023-04-08T13:05:50.312Z,9.57
2023-04-08T13:08:18.457Z,9.23
2023-04-08T13:10:46.014Z,9.63
2023-04-08T13:13:17.791Z,9.20
2023-04-08T13:15:45.500Z,20.52
2023-04-08T13:18:13.035Z,15.52
2023-04-08T13:20:40.557Z,16.58
2023-04-08T13:23:08.357Z,12.50
2023-04-08T13:25:35.789Z,27.55
2023-04-08T13:28:04.194Z,47.15
2023-04-08T13:30:31.858Z,23.42
2023-04-08T13:33:01.612Z,8.38
2023-04-08T13:35:29.254Z,32.45
2023-04-08T13:37:56.851Z,109.45
2023-04-08T13:40:24.859Z,124.50
2023-04-08T13:42:53.073Z,181.80
2023-04-08T13:45:24.053Z,51.47
2023-04-08T13:47:51.894Z,67.15
2023-04-08T13:50:22.311Z,317.83
2023-04-08T13:52:50.069Z,183.25
2023-04-08T13:55:18.363Z,47.63
2023-04-08T13:57:45.896Z,18.02
2023-04-08T14:00:14.488Z,75.47
2023-04-08T14:02:42.467Z,17.33
2023-04-08T14:05:09.868Z,8.52
2023-04-08T14:07:38.876Z,8.38
2023-04-08T14:10:07.432Z,15.63
2023-04-08T14:12:35.288Z,127.60
2023-04-08T14:15:03.519Z,12.35
2023-04-08T14:17:31.361Z,7.97
2023-04-08T14:20:00.060Z,37.45
2023-04-08T14:22:27.245Z,45.55
2023-04-08T14:24:55.180Z,14.13
2023-04-08T14:27:22.680Z,13.98
2023-04-08T14:29:50.032Z,8.93
2023-04-08T14:32:17.896Z,16.20
2023-04-08T14:34:46.030Z,48.17
2023-04-08T14:37:13.426Z,22.42
2023-04-08T14:39:40.641Z,14.85
2023-04-08T14:42:08.334Z,26.85
2023-04-08T14:44:35.037Z,24.33
2023-04-08T14:47:02.723Z,23.75
2023-04-08T14:49:30.983Z,14.88
2023-04-08T14:51:58.218Z,45.88
2023-04-08T14:54:26.159Z,24.30
2023-04-08T14:56:54.722Z,13.23
2023-04-08T14:59:21.952Z,28.35
2023-04-08T15:01:50.695Z,8.60
2023-04-08T15:04:18.169Z,58.78
2023-04-08T15:06:45.574Z,8.90
2023-04-08T15:09:13.117Z,96.38
2023-04-08T15:11:40.834Z,8.90
2023-04-08T15:14:08.110Z,14.18
2023-04-08T15:16:35.585Z,8.40
2023-04-08T15:19:03.175Z,7.28
2023-04-08T15:21:30.321Z,12.68
2023-04-08T15:23:58.017Z,7.43
2023-04-08T15:26:26.543Z,14.13
2023-04-08T15:28:55.106Z,17.65
2023-04-08T15:31:22.568Z,20.70
2023-04-08T15:33:53.749Z,23.15
2023-04-08T15:36:21.409Z,22.80
2023-04-08T15:38:49.605Z,18.83
2023-04-08T15:41:20.697Z,28.15
2023-04-08T15:43:48.376Z,24.40
2023-04-08T15:46:19.848Z,25.10
2023-04-08T15:51:15.100Z,117.32
2023-04-08T15:53:42.452Z,102.90
2023-04-08T15:56:13.415Z,114.78
2023-04-08T15:58:41.203Z,43.85
2023-04-08T16:01:09.180Z,39.88
2023-04-08T16:03:39.710Z,68.63
2023-04-08T16:06:07.104Z,65.00
2023-04-08T16:08:35.364Z,53.10
2023-04-08T16:11:04.160Z,26.70
2023-04-08T16:13:31.838Z,29.27
2023-04-08T16:16:01.292Z,23.73
2023-04-08T16:18:31.904Z,24.15
2023-04-08T16:20:59.361Z,22.07
2023-04-08T16:23:26.886Z,25.17
2023-04-08T16:25:54.374Z,22.52
2023-04-08T16:28:22.692Z,23.15
2023-04-08T16:30:50.352Z,22.92
2023-04-08T16:33:18.190Z,24.63
2023-04-08T16:35:45.578Z,23.55
2023-04-08T16:38:13.725Z,25.60
2023-04-08T16:40:41.490Z,25.65
2023-04-08T16:43:08.877Z,27.58
2023-04-08T16:45:39.818Z,28.98
2023-04-08T16:48:07.963Z,30.25
2023-04-08T16:50:35.491Z,29.17
2023-04-08T16:53:02.775Z,29.88
2023-04-08T16:55:33.784Z,31.92
2023-04-08T16:58:02.069Z,30.02
2023-04-08T17:00:29.798Z,28.25
2023-04-08T17:02:59.857Z,29.55
2023-04-08T17:05:28.103Z,27.38
2023-04-08T17:07:57.045Z,26.70
2023-04-08T17:10:24.816Z,27.27
2023-04-08T17:12:52.877Z,26.98
2023-04-08T17:15:20.637Z,29.38
2023-04-08T17:17:48.573Z,29.85
2023-04-08T17:20:16.061Z,27.45
2023-04-08T17:22:43.983Z,30.88
2023-04-08T17:25:12.173Z,28.05
2023-04-08T17:27:39.649Z,29.77
2023-04-08T17:30:09.525Z,31.52
2023-04-08T17:32:41.616Z,34.97
2023-04-08T17:35:09.535Z,35.85
2023-04-08T17:37:37.408Z,33.85
2023-04-08T17:40:05.102Z,34.25
2023-04-08T17:42:32.987Z,34.63
2023-04-08T17:45:03.161Z,33.92
2023-04-08T17:47:30.948Z,36.88
2023-04-08T17:49:58.668Z,36.88
2023-04-08T17:52:25.889Z,36.28
2023-04-08T17:54:54.290Z,34.28
2023-04-08T17:57:21.656Z,36.83
2023-04-08T17:59:52.344Z,33.40
2023-04-08T18:02:20.266Z,33.15
2023-04-08T18:04:48.245Z,33.00
2023-04-08T18:07:15.009Z,33.85
2023-04-08T18:09:42.662Z,32.08
2023-04-08T18:12:10.086Z,39.70
2023-04-08T18:14:37.410Z,38.17
2023-04-08T18:17:05.221Z,37.88
2023-04-08T18:19:32.637Z,45.55
2023-04-08T18:22:00.094Z,76.60
2023-04-08T18:24:28.039Z,32.05
2023-04-08T18:27:04.151Z,31.20
2023-04-08T18:29:32.290Z,31.95
2023-04-08T18:31:59.989Z,35.22
2023-04-08T18:34:27.631Z,46.58
2023-04-08T18:36:55.519Z,65.30
2023-04-08T18:39:23.567Z,60.97
2023-04-08T18:41:50.722Z,46.13
2023-04-08T18:44:18.391Z,42.60
2023-04-08T18:46:48.445Z,38.10
2023-04-08T18:49:19.089Z,109.57
2023-04-08T18:51:58.904Z,134.27
2023-04-08T18:54:29.293Z,89.57
2023-04-08T18:56:57.272Z,52.33
2023-04-08T18:59:25.268Z,60.13
2023-04-08T19:01:52.648Z,55.15
2023-04-08T19:04:20.135Z,55.80
2023-04-08T19:06:48.152Z,76.15
2023-04-08T19:09:15.555Z,70.00
2023-04-08T19:11:42.990Z,67.13
2023-04-08T19:14:11.911Z,66.50
2023-04-08T19:16:41.504Z,57.72
2023-04-08T19:19:09.585Z,54.28
2023-04-08T19:21:38.532Z,51.17
2023-04-08T19:24:07.277Z,51.10
2023-04-08T19:26:34.973Z,54.45
2023-04-08T19:29:03.104Z,59.53
2023-04-08T19:31:31.883Z,66.13
2023-04-08T19:33:59.508Z,56.22
2023-04-08T19:36:27.290Z,65.15
2023-04-08T19:38:54.743Z,65.00
2023-04-08T19:41:23.738Z,56.25
2023-04-08T19:43:51.267Z,46.22
2023-04-08T19:46:18.625Z,42.88
2023-04-08T19:48:47.116Z,36.25
2023-04-08T19:51:23.120Z,45.78
2023-04-08T19:53:52.275Z,64.38
2023-04-08T19:56:20.547Z,60.42
2023-04-08T19:58:49.336Z,61.20
2023-04-08T20:01:17.557Z,54.88
2023-04-08T20:03:50.883Z,50.55
2023-04-08T20:06:18.777Z,42.88
2023-04-08T20:08:46.945Z,37.92
2023-04-08T20:11:14.811Z,44.70
2023-04-08T20:13:42.348Z,39.40
2023-04-08T20:16:09.645Z,34.88
2023-04-08T20:18:37.165Z,43.92
2023-04-08T20:21:06.186Z,34.60
2023-04-08T20:23:34.088Z,39.92
2023-04-08T20:26:02.242Z,34.90
2023-04-08T20:28:30.061Z,41.15
2023-04-08T20:31:01.965Z,37.95
2023-04-08T20:33:29.187Z,35.20
2023-04-08T20:35:58.047Z,33.25
2023-04-08T20:38:25.938Z,33.42
2023-04-08T20:40:53.714Z,35.50
2023-04-08T20:43:21.254Z,36.35
2023-04-08T20:45:49.384Z,33.92
2023-04-08T20:48:17.488Z,36.40
2023-04-08T20:50:48.259Z,43.67
2023-04-08T20:53:18.070Z,33.83
2023-04-08T20:55:46.058Z,28.65
2023-04-08T20:58:14.042Z,24.77
2023-04-08T21:00:41.698Z,29.27
2023-04-08T21:03:09.566Z,31.42
2023-04-08T21:05:37.998Z,31.45
2023-04-08T21:08:06.008Z,25.25
2023-04-08T21:10:34.303Z,27.35
2023-04-08T21:13:02.330Z,30.33
2023-04-08T21:15:29.928Z,29.35
2023-04-08T21:17:57.462Z,33.63
2023-04-08T21:20:25.194Z,41.28
2023-04-08T21:22:53.010Z,40.47
2023-04-08T21:25:21.007Z,37.30
2023-04-08T21:27:48.643Z,34.47
2023-04-08T21:30:17.939Z,38.67
2023-04-08T21:32:45.452Z,42.45
2023-04-08T21:35:12.985Z,47.20
2023-04-08T21:37:40.691Z,45.97
2023-04-08T21:40:08.439Z,40.97
2023-04-08T21:42:35.983Z,38.17
2023-04-08T21:45:03.667Z,42.78
2023-04-08T21:47:32.950Z,39.97
2023-04-08T21:50:00.623Z,37.00
2023-04-08T21:52:28.418Z,35.25
2023-04-08T21:54:56.143Z,35.75
2023-04-08T21:57:24.024Z,45.95
2023-04-08T21:59:52.005Z,61.30
2023-04-08T22:02:22.558Z,56.40
2023-04-08T22:04:50.682Z,47.65
2023-04-08T22:07:18.253Z,51.15
2023-04-08T22:09:45.969Z,48.42
2023-04-08T22:12:13.495Z,48.05
2023-04-08T22:14:41.068Z,49.97
2023-04-08T22:17:08.759Z,47.83
2023-04-08T22:19:36.456Z,53.63
2023-04-08T22:22:03.966Z,50.00
2023-04-08T22:24:31.557Z,45.33
2023-04-08T22:27:00.027Z,42.65
2023-04-08T22:29:27.793Z,46.35
2023-04-08T22:31:55.554Z,50.22
2023-04-08T22:34:23.179Z,47.95
2023-04-08T22:36:51.778Z,42.25
2023-04-08T22:39:19.932Z,41.63
2023-04-08T22:41:47.617Z,41.28
2023-04-08T22:44:15.441Z,34.03
2023-04-08T22:46:43.411Z,32.53
2023-04-08T22:49:11.102Z,29.55
2023-04-08T22:51:39.322Z,27.17
2023-04-08T22:54:06.990Z,24.02
2023-04-08T22:56:34.646Z,25.40
2023-04-08T22:59:02.361Z,35.63
2023-04-08T23:01:31.030Z,36.22
2023-04-08T23:03:58.157Z,47.00
2023-04-08T23:06:25.821Z,52.17
2023-04-08T23:08:53.477Z,38.92
2023-04-08T23:11:21.582Z,42.65
2023-04-08T23:13:49.004Z,39.95
2023-04-08T23:16:16.849Z,28.85
2023-04-08T23:18:44.116Z,22.63
2023-04-08T23:21:11.788Z,31.40
2023-04-08T23:23:39.397Z,31.38
2023-04-08T23:26:06.631Z,15.13
2023-04-08T23:28:34.081Z,12.55
2023-04-08T23:31:04.440Z,14.82
2023-04-08T23:33:31.874Z,15.43
2023-04-08T23:35:59.511Z,15.75
2023-04-08T23:38:27.235Z,15.00
2023-04-08T23:40:54.664Z,12.85
2023-04-08T23:43:22.175Z,13.02
2023-04-08T23:45:49.594Z,21.20
2023-04-08T23:48:17.147Z,22.25
2023-04-08T23:50:44.719Z,18.63
2023-04-08T23:53:11.984Z,18.25
2023-04-08T23:55:39.435Z,18.92
2023-04-08T23:58:06.804Z,23.73
